• Join FlightAware (Why Join?)
  • Login
  • US Flag GB Flag 
22:00 EST


 

Airport Tracker/Info


-or-


 

Live Flight TrackerFlight Track Log ✈ N141FM ✈ 28-Feb-2012 ✈ KORF - KBCT

Flight Track Log - Related Links

Times and Time Zones

All times are in EST time to prevent confusion due to time zone crossing. See the N141FM flight status page for this flight to view local times or setup timezone preferences in your user account.

Time Position Orientation Groundspeed Altitude Reporting Facility
EST Latitude Longitude Course Direction KTS MPH feet Rate Location/Type
10:11 36.9078 -76.1894 90° East 179 206 1,000  Level Washington Center
10:12 36.9081 -76.1347 212° Southwest 254 292 3,600 1,740 Climbing Washington Center
10:13 36.8431 -76.1861 212° Southwest 273 314 4,800 1,200 Climbing Washington Center
10:15 36.7531 -76.2556 208° Southwest 287 330 6,500 2,100 Climbing Washington Center
10:16 36.6839 -76.3017 206° Southwest 293 337 9,900 3,060 Climbing Washington Center
10:17 36.6086 -76.3475 207° Southwest 293 337 12,700 2,760 Climbing Washington Center
10:18 36.5311 -76.3958 207° Southwest 299 344 15,500 2,580 Climbing Washington Center
10:19 36.4492 -76.4467 204° Southwest 310 357 17,900 2,460 Climbing Washington Center
10:21 36.2775 -76.5428 204° Southwest 335 386 23,000 2,460 Climbing Washington Center
10:22 36.1872 -76.5931 203° Southwest 341 392 25,400 2,400 Climbing Washington Center
10:23 36.0950 -76.6408 205° Southwest 354 407 27,900 1,860 Climbing Washington Center
10:24 35.9986 -76.6961 202° Southwest 365 420 29,200 1,320 Climbing Washington Center
10:25 35.8958 -76.7483 205° Southwest 388 447 30,600 1,560 Climbing Washington Center
10:26 35.7911 -76.8083 204° Southwest 402 463 32,400 1,680 Climbing Washington Center
10:27 35.6861 -76.8656 203° Southwest 407 468 34,000 1,620 Climbing Washington Center
10:28 35.5811 -76.9200 204° Southwest 412 474 35,700 1,680 Climbing Washington Center
10:29 35.4761 -76.9769 223° Southwest 412 474 37,400 1,620 Climbing Washington Center
10:30 35.3981 -77.0650 227° Southwest 401 461 39,000 1,080 Climbing Washington Center
10:31 35.3258 -77.1603 225° Southwest 380 437 39,600 480 Climbing Washington Center
10:32 35.2494 -77.2528 225° Southwest 391 450 40,000 180 Climbing Washington Center
10:33 35.1689 -77.3503 226° Southwest 405 466 40,000  Level Washington Center
10:34 35.0881 -77.4525 225° Southwest 412 474 40,000  Level Washington Center
10:35 35.0050 -77.5522 225° Southwest 412 474 40,000  Level Washington Center
10:36 34.9303 -77.6442 225° Southwest 417 480 40,000  Level Washington Center
10:37 34.8472 -77.7458 227° Southwest 423 487 40,000  Level Washington Center
10:38 34.7597 -77.8597 223° Southwest 423 487 40,000  Level Washington Center
10:39 34.6742 -77.9558 225° Southwest 418 481 40,000  Level Washington Center
10:41 34.4992 -78.1714 225° Southwest 411 473 40,000 -60 Level Jacksonville Center
10:42 34.4153 -78.2717 224° Southwest 417 480 39,900  Descending Jacksonville Center
10:43 34.3331 -78.3692 224° Southwest 417 480 40,000  Climbing Jacksonville Center
10:44 34.2511 -78.4664 225° Southwest 417 480 40,000  Level Jacksonville Center
10:45 34.1692 -78.5658 224° Southwest 417 480 40,000  Level Jacksonville Center
10:46 34.0867 -78.6625 225° Southwest 417 480 40,000  Level Jacksonville Center
10:47 34.0044 -78.7619 224° Southwest 422 486 40,000  Level Jacksonville Center
10:48 33.9200 -78.8608 223° Southwest 422 486 40,000  Level Jacksonville Center
10:49 33.8375 -78.9547 225° Southwest 422 486 40,000  Level Jacksonville Center
10:50 33.7531 -79.0558 223° Southwest 422 486 40,000  Level Jacksonville Center
10:51 33.6703 -79.1469 225° Southwest 422 486 40,000  Level Jacksonville Center
10:52 33.5875 -79.2450 223° Southwest 416 479 40,000  Level Jacksonville Center
10:53 33.5025 -79.3406 225° Southwest 416 479 40,000  Level Jacksonville Center
10:54 33.4197 -79.4386 223° Southwest 416 479 40,000  Level Jacksonville Center
10:55 33.3347 -79.5339 224° Southwest 416 479 40,000  Level Jacksonville Center
10:56 33.2517 -79.6314 224° Southwest 416 479 40,000  Level Jacksonville Center
10:57 33.1686 -79.7261 223° Southwest 421 484 40,000  Level Jacksonville Center
10:58 33.0833 -79.8208 224° Southwest 421 484 40,000  Level Jacksonville Center
10:59 33.0000 -79.9178 223° Southwest 421 484 40,000  Level Jacksonville Center
11:00 32.9144 -80.0122 214° Southwest 421 484 40,000  Level Jacksonville Center
11:01 32.8161 -80.0919 213° Southwest 426 490 40,000  Level Jacksonville Center
11:02 32.7175 -80.1692 212° Southwest 431 496 40,000  Level Jacksonville Center
11:03 32.6169 -80.2436 212° Southwest 431 496 40,000  Level Jacksonville Center
11:04 32.5119 -80.3206 212° Southwest 436 502 40,000  Level Jacksonville Center
11:05 32.4111 -80.3950 211° Southwest 436 502 40,000  Level Jacksonville Center
11:06 32.3083 -80.4689 211° Southwest 436 502 40,000  Level Jacksonville Center
11:07 32.2053 -80.5428 213° Southwest 431 496 40,000  Level Jacksonville Center
11:08 32.1167 -80.6114 211° Southwest 431 496 40,000  Level Jacksonville Center
11:09 32.0033 -80.6925 212° Southwest 426 490 40,000  Level Jacksonville Center
11:10 31.9003 -80.7683 211° Southwest 431 496 40,000  Level Jacksonville Center
11:11 31.8094 -80.8317 225° Southwest 431 496 40,000  Level Jacksonville Center
11:12 31.7214 -80.9339 231° Southwest 416 479 40,000  Level Jacksonville Center
11:13 31.6558 -81.0278 229° Southwest 406 467 40,000  Level Jacksonville Center
11:14 31.5822 -81.1269 230° Southwest 406 467 40,000  Level Jacksonville Center
11:15 31.5042 -81.2356 228° Southwest 412 474 40,000  Level Jacksonville Center
11:16 31.4364 -81.3244 228° Southwest 405 466 40,000  Level Jacksonville Center
11:17 31.3542 -81.4328 229° Southwest 411 473 40,000  Level Jacksonville Center
11:18 31.2803 -81.5314 229° Southwest 411 473 40,000  Level Jacksonville Center
11:19 31.2061 -81.6319 228° Southwest 411 473 40,000  Level Jacksonville Center
11:20 31.1297 -81.7300 229° Southwest 411 473 40,000  Level Jacksonville Center
11:21 31.0556 -81.8303 225° Southwest 411 473 40,000  Level Jacksonville Center
11:22 30.9747 -81.9233 191° South 411 473 40,000  Level Jacksonville Center
11:23 30.8519 -81.9511 193° South 411 473 40,000  Level Jacksonville Center
11:24 30.7392 -81.9814 194° South 437 503 40,000  Level Jacksonville Center
11:25 30.6183 -82.0164 193° South 448 516 40,000  Level Jacksonville Center
11:26 30.4997 -82.0489 193° South 448 516 40,000  Level Jacksonville Center
11:27 30.3789 -82.0811 194° South 448 516 40,000  Level Jacksonville Center
11:28 30.2578 -82.1158 195° South 448 516 40,000  Level Jacksonville Center
11:29 30.1369 -82.1528 195° South 453 521 40,000 -300 Level Jacksonville Center
11:30 30.0142 -82.1897 193° South 453 521 39,500 -540 Descending Jacksonville Center
11:31 29.8869 -82.2242 194° South 458 527 39,000 -300 Descending Jacksonville Center
11:32 29.7617 -82.2608 193° South 464 534 39,000  Level Jacksonville Center
11:33 29.6347 -82.2953 191° South 470 541 39,000  Level Jacksonville Center
11:34 29.5075 -82.3247 178° South 470 541 39,000  Level Jacksonville Center
11:35 29.3717 -82.3206 180° South 481 554 39,000  Level Jacksonville Center
11:36 29.2256 -82.3192 179° South 481 554 39,000 -180 Level Jacksonville Center
11:37 29.0900 -82.3175 179° South 481 554 38,700 -480 Descending Jacksonville Center
11:38 28.9564 -82.3158 180° South 481 554 38,100 -900 Descending Jacksonville Center
11:39 28.8331 -82.3167 179° South 481 554 37,000 -1,200 Descending Jacksonville Center
11:40 28.6933 -82.3150 180° South 488 562 35,700 -1,020 Descending Jacksonville Center
11:41 28.5578 -82.3158 179° South 494 568 35,000 -360 Descending Jacksonville Center
11:42 28.4178 -82.3119 180° South 494 568 35,000  Level Jacksonville Center
11:44 28.1344 -82.3114 176° South 502 578 35,000  Level Miami Center
11:45 27.9972 -82.3000 163° South 507 583 35,000  Level Miami Center
11:46 27.8592 -82.2533 161° South 503 579 35,000  Level Miami Center
11:47 27.7133 -82.1972 162° South 508 585 35,000 -240 Level Miami Center
11:48 27.5917 -82.1519 164° South 515 593 34,600 -900 Descending Miami Center
11:49 27.4556 -82.1081 163° South 515 593 33,200 -2,520 Descending Miami Center
11:50 27.3072 -82.0569 164° South 509 586 29,600 -3,240 Descending Miami Center
11:51 27.1772 -82.0139 164° South 498 573 26,800 -2,820 Descending Miami Center
11:52 27.0575 -81.9758 150° Southeast 492 566 24,000 -2,220 Descending Miami Center
11:53 26.9331 -81.8958 144° Southeast 485 558 22,400 -1,560 Descending Miami Center
11:54 26.8294 -81.8100 140° Southeast 472 543 20,900 -1,680 Descending Miami Center
11:55 26.7364 -81.7222 106° East 459 528 19,100 -960 Descending Miami Center
11:56 26.7031 -81.5953 77° East 409 471 19,000 -60 Descending Miami Center
11:57 26.7278 -81.4778 84° East 394 453 19,000 -180 Level Miami Center
11:58 26.7403 -81.3458 84° East 402 463 18,700 -600 Descending Miami Center
11:59 26.7550 -81.1997 83° East 425 489 17,800 -780 Descending Miami Center
12:00 26.7694 -81.0678 112° Southeast 425 489 17,200 -960 Descending Miami Center
12:01 26.7269 -80.9478 87° East 398 458 15,900 -2,460 Descending Miami Center
12:02 26.7319 -80.8408 57° Northeast 389 448 12,300 -3,360 Descending Miami Center
12:03 26.7867 -80.7450 111° Southeast 335 386 9,200 -2,160 Descending Miami Center
12:04 26.7597 -80.6650 129° Southeast 289 333 8,000 -1,560 Descending Miami Center
12:05 26.7092 -80.5961 131° Southeast 266 306 6,100 -1,440 Descending Miami Center
12:06 26.6669 -80.5414 128° Southeast 266 306 5,200 -900 Descending Miami Center
12:07 26.6164 -80.4678 127° Southeast 266 306 4,400 -840 Descending Miami Center
12:08 26.5742 -80.4061 127° Southeast 269 310 3,600 -720 Descending Miami Center
12:09 26.5256 -80.3350 128° Southeast 265 305 3,000 -600 Descending Miami Center
12:10 26.4811 -80.2708 124° Southeast 262 302 2,500 -540 Descending Miami Center
12:11 26.4411 -80.2047 138° Southeast 258 297 2,000 -420 Descending Miami Center
12:12 26.3961 -80.1594 136° Southeast 195 224 1,700 -720 Descending Miami Center
12:13 26.3675 -80.1286 136° Southeast 154 177 600 -1,140 Descending Miami Center